Time;durP1;ratioP1;P1;durP2;ratioP2;P2;SDS_P1;SDS_P2;PMS_P1;PMS_P2;Temp;Humidity;BMP_temperature;BMP_pressure;BME280_temperature;BME280_humidity;BME280_pressure;Samples;Min_cycle;Max_cycle;Signal;HPM_P1;HPM_P2
2022/01/28 00:00:36;;;;;;;2.60;0.55;;;15.30;47.70;;;;;;5086995;28;20040;-67
2022/01/28 00:05:41;;;;;;;2.95;0.50;;;15.30;47.70;;;;;;5153820;27;1160942;-67
2022/01/28 00:08:07;;;;;;;2.60;0.50;;;15.30;47.60;;;;;;5152192;27;20046;-66
2022/01/28 00:10:33;;;;;;;3.40;0.50;;;15.20;47.60;;;;;;5152468;27;20070;-66
2022/01/28 00:16:11;;;;;;;3.83;0.45;;;15.20;47.70;;;;;;5089408;27;20381;-67
2022/01/28 00:18:53;;;;;;;3.00;0.28;;;15.20;47.60;;;;;;5087158;28;20047;-67
2022/01/28 00:40:39;;;;;;;3.10;0.40;;;15.10;47.60;;;;;;5089447;27;20413;-67
2022/01/28 00:43:06;;;;;;;3.60;0.35;;;15.10;47.70;;;;;;5087954;28;20048;-67
2022/01/28 00:45:32;;;;;;;4.45;0.50;;;15.10;47.60;;;;;;5087864;28;20040;-69
2022/01/28 00:48:00;;;;;;;3.38;0.70;;;15.10;47.60;;;;;;5087919;28;20040;-69
2022/01/28 00:50:27;;;;;;;3.28;0.55;;;15.10;47.60;;;;;;5087993;28;20048;-69
2022/01/28 00:52:53;;;;;;;3.85;0.50;;;15.00;47.60;;;;;;5087868;28;20046;-69
2022/01/28 00:55:18;;;;;;;3.83;0.40;;;15.00;47.60;;;;;;5087987;28;20044;-68
2022/01/28 00:57:44;;;;;;;4.65;0.60;;;15.00;47.60;;;;;;5087307;28;20403;-69
2022/01/28 01:00:11;;;;;;;2.72;0.63;;;15.00;47.60;;;;;;5086940;28;20052;-67
2022/01/28 01:02:37;;;;;;;3.03;0.43;;;15.00;47.70;;;;;;5087953;28;20119;-70
2022/01/28 01:05:03;;;;;;;4.35;0.55;;;15.00;47.70;;;;;;5087959;28;20128;-67
2022/01/28 01:07:41;;;;;;;2.80;0.60;;;14.90;47.60;;;;;;5087707;28;20040;-69
2022/01/28 01:10:08;;;;;;;3.15;0.75;;;15.00;47.80;;;;;;5087516;28;20044;-69
2022/01/28 01:12:39;;;;;;;4.00;0.77;;;15.00;47.70;;;;;;5087401;28;20043;-71
2022/01/28 01:15:05;;;;;;;2.78;0.55;;;15.00;47.70;;;;;;5087434;28;20090;-69
2022/01/28 01:20:21;;;;;;;4.85;0.68;;;15.20;47.50;;;;;;5129606;27;20354;-68
2022/01/28 01:26:11;;;;;;;3.13;0.57;;;15.50;47.00;;;;;;5129700;28;20598;-69
2022/01/28 01:28:29;;;;;;;3.38;0.60;;;15.80;46.60;;;;;;5128700;28;20055;-70
2022/01/28 01:30:56;;;;;;;3.53;0.40;;;16.10;46.20;;;;;;5128957;28;20036;-68
2022/01/28 01:33:22;;;;;;;3.75;0.85;;;16.30;45.70;;;;;;5128799;28;20043;-69
2022/01/28 01:35:48;;;;;;;5.30;0.88;;;16.60;45.30;;;;;;5128597;27;20398;-70
2022/01/28 01:38:16;;;;;;;2.10;0.35;;;16.90;44.90;;;;;;5127508;28;20501;-69
2022/01/28 01:40:51;;;;;;;2.72;0.50;;;17.10;44.50;;;;;;5127952;28;20089;-67
2022/01/28 01:43:30;;;;;;;2.95;0.60;;;17.30;44.00;;;;;;5128742;28;20032;-69
2022/01/28 01:54:15;;;;;;;3.70;0.68;;;18.10;42.60;;;;;;5087664;28;20044;-69
2022/01/28 01:56:41;;;;;;;3.42;0.70;;;18.30;42.30;;;;;;5087475;28;20094;-70
2022/01/28 01:59:08;;;;;;;2.67;0.30;;;18.40;42.00;;;;;;5087395;28;20101;-70
2022/01/28 02:01:35;;;;;;;3.50;0.50;;;18.50;41.80;;;;;;5087768;28;20047;-69
2022/01/28 02:04:01;;;;;;;2.78;0.52;;;18.60;41.50;;;;;;5089189;28;20084;-67
2022/01/28 02:06:26;;;;;;;4.00;0.68;;;18.80;41.30;;;;;;5087395;28;20083;-67
2022/01/28 02:08:53;;;;;;;2.20;0.40;;;18.90;41.10;;;;;;5087733;28;20040;-67
2022/01/28 02:11:19;;;;;;;2.50;0.47;;;19.00;40.90;;;;;;5088827;28;20115;-67
2022/01/28 02:13:50;;;;;;;3.17;0.70;;;19.10;40.70;;;;;;5087450;28;20090;-67
2022/01/28 02:16:17;;;;;;;2.42;0.30;;;19.20;40.50;;;;;;5087341;28;20047;-67
2022/01/28 02:18:43;;;;;;;4.15;0.50;;;19.30;40.40;;;;;;5086693;28;20040;-69
2022/01/28 02:21:11;;;;;;;3.17;0.52;;;19.30;40.20;;;;;;5086966;28;20157;-67
2022/01/28 02:23:38;;;;;;;4.78;0.60;;;19.40;40.00;;;;;;5087294;28;20515;-67
2022/01/28 02:26:06;;;;;;;2.95;0.55;;;19.50;39.80;;;;;;5087206;28;20047;-67
2022/01/28 02:28:36;;;;;;;4.35;0.80;;;19.50;39.70;;;;;;5087127;28;20508;-67
2022/01/28 02:31:03;;;;;;;3.47;0.47;;;19.60;39.60;;;;;;5087709;28;20114;-69
2022/01/28 02:33:29;;;;;;;5.68;0.75;;;19.60;39.50;;;;;;5087179;28;20044;-66
2022/01/28 02:36:02;;;;;;;1.92;0.38;;;19.70;39.40;;;;;;5088484;28;20043;-67
2022/01/28 02:38:31;;;;;;;3.13;0.40;;;19.70;39.30;;;;;;5086095;28;20452;-70
2022/01/28 02:41:00;;;;;;;5.80;1.20;;;19.80;39.20;;;;;;5086932;28;20089;-68
2022/01/28 02:46:13;;;;;;;6.20;0.60;;;19.90;39.00;;;;;;5152621;27;1168513;-66
2022/01/28 02:48:42;;;;;;;2.92;0.40;;;19.90;38.90;;;;;;5152823;27;20358;-66
2022/01/28 02:51:18;;;;;;;3.35;0.47;;;19.90;38.80;;;;;;5152909;27;20046;-66
2022/01/28 02:59:12;;;;;;;3.38;0.45;;;20.00;38.50;;;;;;5149948;27;20465;-67
2022/01/28 03:01:37;;;;;;;4.82;1.17;;;20.10;38.50;;;;;;5129691;28;20201;-66
2022/01/28 03:04:05;;;;;;;2.15;0.38;;;20.10;38.40;;;;;;5128940;28;20118;-67
2022/01/28 03:06:31;;;;;;;2.60;0.90;;;20.10;38.30;;;;;;5128638;28;20056;-67
2022/01/28 03:09:08;;;;;;;3.35;0.70;;;20.10;38.30;;;;;;5129106;28;20043;-66
2022/01/28 03:14:47;;;;;;;3.05;0.60;;;20.10;38.30;;;;;;5150115;27;20114;-68
2022/01/28 03:17:37;;;;;;;4.60;1.15;;;20.10;38.20;;;;;;5127913;28;20100;-66
2022/01/28 03:20:16;;;;;;;4.70;1.10;;;20.10;38.30;;;;;;5129373;28;20047;-67
2022/01/28 03:22:41;;;;;;;3.95;0.68;;;20.10;38.30;;;;;;5128173;28;20449;-66
2022/01/28 03:25:07;;;;;;;4.75;0.68;;;20.10;38.30;;;;;;5128297;27;20135;-69
2022/01/28 03:27:50;;;;;;;4.20;0.68;;;20.20;38.30;;;;;;5129108;27;20441;-66
2022/01/28 03:30:16;;;;;;;3.20;0.80;;;20.20;38.20;;;;;;5127757;28;20052;-66
2022/01/28 03:32:41;;;;;;;2.67;0.55;;;20.20;38.10;;;;;;5127462;28;20124;-69
2022/01/28 03:35:09;;;;;;;4.07;0.50;;;20.30;38.10;;;;;;5127619;28;20039;-67
2022/01/28 03:37:35;;;;;;;4.03;0.90;;;20.30;38.00;;;;;;5127842;28;20063;-66
2022/01/28 03:40:02;;;;;;;2.40;0.63;;;20.30;38.00;;;;;;5128652;28;20458;-66
2022/01/28 03:42:28;;;;;;;5.70;0.77;;;20.40;38.00;;;;;;5129125;27;20119;-66
2022/01/28 03:44:53;;;;;;;5.28;0.60;;;20.40;37.90;;;;;;5127183;28;20490;-67
2022/01/28 03:47:19;;;;;;;5.35;0.50;;;20.40;37.90;;;;;;5127355;28;20054;-67
2022/01/28 03:49:44;;;;;;;2.40;0.40;;;20.40;37.90;;;;;;5127467;28;20477;-66
2022/01/28 03:52:10;;;;;;;6.10;1.05;;;20.40;37.90;;;;;;5128451;28;20211;-69
2022/01/28 03:54:36;;;;;;;4.70;0.70;;;20.40;38.40;;;;;;5128187;28;20401;-66
2022/01/28 03:57:04;;;;;;;3.03;0.73;;;20.40;37.90;;;;;;5127996;28;20044;-66
2022/01/28 03:59:30;;;;;;;2.17;0.35;;;20.40;37.80;;;;;;5129617;27;20043;-67
2022/01/28 04:01:56;;;;;;;2.67;0.98;;;20.40;37.90;;;;;;5128345;28;20119;-67
2022/01/28 04:12:42;;;;;;;2.88;0.47;;;20.40;37.90;;;;;;5126797;28;20055;-66
2022/01/28 04:17:49;;;;;;;3.20;0.73;;;20.40;37.80;;;;;;5130113;27;20383;-66
2022/01/28 04:20:15;;;;;;;3.47;0.55;;;20.40;37.90;;;;;;5129047;28;20044;-66
2022/01/28 04:22:41;;;;;;;3.67;0.80;;;20.40;37.80;;;;;;5128888;28;20046;-67
2022/01/28 04:25:07;;;;;;;3.67;0.60;;;20.40;37.80;;;;;;5111704;28;20050;-67
2022/01/28 04:27:35;;;;;;;3.38;0.60;;;20.40;37.70;;;;;;5128532;28;20054;-69
2022/01/28 04:30:02;;;;;;;3.95;0.77;;;20.40;37.70;;;;;;5128922;27;20551;-66
2022/01/28 04:32:29;;;;;;;3.55;0.55;;;20.40;37.70;;;;;;5128613;27;20078;-66
2022/01/28 04:34:55;;;;;;;3.58;0.45;;;20.40;37.70;;;;;;5127918;28;20043;-66
2022/01/28 04:37:30;;;;;;;5.38;0.60;;;20.40;37.70;;;;;;5128084;28;20092;-66
2022/01/28 04:40:13;;;;;;;4.45;0.88;;;20.40;37.70;;;;;;5129987;27;20537;-66
2022/01/28 04:45:51;;;;;;;3.72;0.90;;;20.40;37.70;;;;;;5089364;27;20364;-66
2022/01/28 04:48:26;;;;;;;4.70;0.65;;;20.40;37.80;;;;;;5087656;28;20059;-66
2022/01/28 04:51:09;;;;;;;3.72;0.75;;;20.40;37.70;;;;;;5088245;28;20044;-66
2022/01/28 04:53:47;;;;;;;3.72;0.70;;;20.40;37.70;;;;;;5087713;28;20533;-66
2022/01/28 05:29:16;;;;;;;5.57;0.50;;;20.50;37.50;;;;;;5150599;27;20454;-67
2022/01/28 05:31:42;;;;;;;5.20;1.25;;;20.50;37.50;;;;;;5129498;28;20126;-66
2022/01/28 05:34:10;;;;;;;3.92;0.85;;;20.50;37.40;;;;;;5129405;28;20487;-66
2022/01/28 05:36:36;;;;;;;5.60;0.82;;;20.50;37.40;;;;;;5127950;28;20093;-69
2022/01/28 05:39:05;;;;;;;4.68;0.63;;;20.50;37.40;;;;;;5128627;28;20482;-69
2022/01/28 05:41:31;;;;;;;3.60;0.70;;;20.50;37.30;;;;;;5128983;28;20039;-69
2022/01/28 05:43:56;;;;;;;3.20;0.80;;;20.50;37.40;;;;;;5129901;27;20367;-67
2022/01/28 05:46:22;;;;;;;4.00;0.90;;;20.50;37.40;;;;;;5128739;28;20085;-69
2022/01/28 05:48:48;;;;;;;4.43;1.13;;;20.50;37.40;;;;;;5128115;28;20047;-67
2022/01/28 05:51:14;;;;;;;3.22;0.60;;;20.40;37.30;;;;;;5129671;28;20074;-70
2022/01/28 05:53:40;;;;;;;3.72;0.80;;;20.40;37.40;;;;;;5128318;28;20031;-70
2022/01/28 05:56:05;;;;;;;6.05;0.80;;;20.40;38.20;;;;;;5127910;28;20067;-70
2022/01/28 05:58:31;;;;;;;5.47;0.90;;;20.40;37.40;;;;;;5129387;28;20471;-67
2022/01/28 06:00:57;;;;;;;4.25;0.85;;;20.40;37.40;;;;;;5129806;28;20038;-69
2022/01/28 06:03:22;;;;;;;4.63;0.88;;;20.40;37.40;;;;;;5129871;28;20394;-67
2022/01/28 06:05:48;;;;;;;2.58;0.60;;;20.40;37.50;;;;;;5128582;28;20048;-69
2022/01/28 06:08:15;;;;;;;3.05;0.77;;;20.40;37.50;;;;;;5128079;28;20046;-69
2022/01/28 06:10:41;;;;;;;3.80;0.98;;;20.30;37.50;;;;;;5128050;28;20044;-66
2022/01/28 06:13:07;;;;;;;4.95;1.27;;;20.30;37.40;;;;;;5129108;28;20031;-68
2022/01/28 06:15:33;;;;;;;3.13;0.65;;;20.30;37.50;;;;;;5127201;28;20043;-70
2022/01/28 06:17:59;;;;;;;3.30;0.50;;;20.30;37.50;;;;;;5127455;28;20066;-67
2022/01/28 06:20:24;;;;;;;4.32;0.70;;;20.30;37.50;;;;;;5128048;28;20043;-69
2022/01/28 06:22:50;;;;;;;4.85;0.80;;;20.30;37.50;;;;;;5128485;28;20097;-67
2022/01/28 06:25:16;;;;;;;3.80;0.60;;;20.30;37.50;;;;;;5127988;28;20039;-67
2022/01/28 06:27:43;;;;;;;5.05;0.88;;;20.30;37.50;;;;;;5127427;28;20127;-68
2022/01/28 06:30:13;;;;;;;4.47;1.15;;;20.30;37.40;;;;;;5129123;27;20050;-67
2022/01/28 06:32:42;;;;;;;;;;;20.30;37.40;;;;;;5129430;27;20644;-69
2022/01/28 06:35:08;;;;;;;3.15;0.70;;;20.30;37.30;;;;;;5127088;28;20251;-70
2022/01/28 06:37:37;;;;;;;4.40;0.90;;;20.30;37.40;;;;;;5126732;28;20433;-66
2022/01/28 06:40:05;;;;;;;4.93;1.10;;;20.30;37.30;;;;;;5116396;27;20047;-67
2022/01/28 06:42:31;;;;;;;4.40;1.02;;;20.30;37.30;;;;;;5114175;28;20376;-69
2022/01/28 06:44:57;;;;;;;8.60;0.93;;;20.40;37.40;;;;;;5106109;28;20039;-80
2022/01/28 06:47:22;;;;;;;3.78;0.75;;;20.30;37.50;;;;;;5113260;28;20043;-85
2022/01/28 06:49:51;;;;;;;4.88;1.05;;;20.30;37.30;;;;;;5102355;28;20096;-81
2022/01/28 06:52:16;;;;;;;3.05;0.63;;;20.30;37.30;;;;;;5091487;28;20040;-86
2022/01/28 06:54:45;;;;;;;5.05;0.60;;;20.30;37.30;;;;;;5092333;28;20032;-84
2022/01/28 06:57:10;;;;;;;5.00;0.75;;;20.20;37.60;;;;;;5091775;28;20040;-78
2022/01/28 06:59:36;;;;;;;4.10;0.68;;;20.20;37.60;;;;;;5093849;28;20088;-88
2022/01/28 07:02:02;;;;;;;3.20;1.27;;;20.20;37.60;;;;;;5092723;28;20372;-78
2022/01/28 07:04:30;;;;;;;3.58;0.98;;;20.30;37.70;;;;;;5104114;28;20479;-76
2022/01/28 07:06:56;;;;;;;4.60;0.70;;;20.30;37.70;;;;;;5088623;28;20044;-75
2022/01/28 07:09:22;;;;;;;3.88;0.90;;;20.30;37.50;;;;;;5106253;28;20590;-76
2022/01/28 07:11:47;;;;;;;4.05;0.80;;;20.40;37.60;;;;;;5091898;28;20044;-77
2022/01/28 07:14:13;;;;;;;4.10;0.70;;;20.40;37.50;;;;;;5088447;28;20111;-76
2022/01/28 07:16:38;;;;;;;5.10;1.13;;;20.50;37.60;;;;;;5089633;28;20107;-75
2022/01/28 07:19:04;;;;;;;4.95;1.15;;;20.50;37.40;;;;;;5088313;28;20062;-74
2022/01/28 07:21:30;;;;;;;17.15;2.10;;;20.50;36.30;;;;;;5087861;28;20047;-78
2022/01/28 07:23:56;;;;;;;9.27;2.10;;;20.40;34.90;;;;;;5085403;28;20091;-73
2022/01/28 07:26:21;;;;;;;9.38;1.58;;;20.40;34.10;;;;;;5083395;28;20043;-75
2022/01/28 07:28:49;;;;;;;7.88;2.40;;;20.40;33.80;;;;;;5079424;28;20086;-71
2022/01/28 07:31:17;;;;;;;9.57;2.22;;;20.40;33.70;;;;;;5075153;28;20048;-70
2022/01/28 07:33:43;;;;;;;9.43;1.58;;;20.30;33.30;;;;;;5103712;28;20047;-74
2022/01/28 07:36:09;;;;;;;11.90;1.80;;;20.30;33.30;;;;;;5088773;28;20035;-73
2022/01/28 07:38:34;;;;;;;9.57;1.98;;;20.30;33.10;;;;;;5088566;28;20541;-67
2022/01/28 07:41:01;;;;;;;8.70;1.67;;;20.30;32.70;;;;;;5090809;28;20042;-73
2022/01/28 07:43:27;;;;;;;9.25;1.92;;;20.40;33.30;;;;;;5102643;28;20130;-66
2022/01/28 07:45:56;;;;;;;11.15;1.77;;;20.40;32.30;;;;;;5095237;28;20028;-70
2022/01/28 07:48:22;;;;;;;5.97;1.05;;;20.40;32.30;;;;;;5096253;28;20123;-71
2022/01/28 07:50:51;;;;;;;10.90;1.88;;;20.40;32.20;;;;;;5090941;28;20201;-71
2022/01/28 07:53:17;;;;;;;7.32;1.65;;;20.40;32.30;;;;;;5096727;28;20031;-67
2022/01/28 07:55:46;;;;;;;7.68;1.85;;;20.50;32.80;;;;;;5095725;28;20040;-65
2022/01/28 07:58:11;;;;;;;7.30;1.30;;;20.60;33.00;;;;;;5093536;28;20578;-77
2022/01/28 08:00:37;;;;;;;10.32;1.33;;;20.80;33.20;;;;;;5093707;28;20085;-66
2022/01/28 08:03:03;;;;;;;9.57;1.13;;;21.00;33.30;;;;;;5091833;28;20035;-65
2022/01/28 08:05:29;;;;;;;7.28;1.50;;;21.20;33.30;;;;;;5102178;28;20634;-64
2022/01/28 08:07:55;;;;;;;7.18;1.80;;;21.40;33.30;;;;;;5097211;28;20044;-72
2022/01/28 08:10:20;;;;;;;6.55;1.20;;;21.60;33.30;;;;;;5103772;28;20043;-75
2022/01/28 08:15:26;;;;;;;5.18;0.95;;;21.70;33.30;;;;;;5068762;27;20412;-72
2022/01/28 08:17:51;;;;;;;5.72;1.10;;;21.90;33.20;;;;;;5066032;28;20125;-68
2022/01/28 08:20:17;;;;;;;4.75;0.90;;;21.90;33.30;;;;;;5067531;28;20488;-73
2022/01/28 08:25:26;;;;;;;5.25;1.23;;;21.90;33.60;;;;;;5085429;27;20408;-70
2022/01/28 08:27:52;;;;;;;8.13;1.67;;;21.90;33.70;;;;;;5086574;28;20415;-70
2022/01/28 08:30:20;;;;;;;5.50;1.35;;;21.80;33.90;;;;;;5086481;28;20893;-64
2022/01/28 08:32:47;;;;;;;7.63;1.00;;;21.70;34.10;;;;;;5086562;28;20131;-70
2022/01/28 08:35:13;;;;;;;6.05;1.23;;;21.60;34.30;;;;;;5090575;28;20040;-65
2022/01/28 08:37:39;;;;;;;8.55;1.20;;;21.50;34.60;;;;;;5088776;28;20426;-69
2022/01/28 08:40:07;;;;;;;4.00;1.23;;;21.40;34.90;;;;;;5089723;28;20045;-71
2022/01/28 08:42:33;;;;;;;6.82;1.25;;;21.30;35.10;;;;;;5090985;28;20036;-65
2022/01/28 08:44:58;;;;;;;5.10;1.10;;;21.20;35.20;;;;;;5087323;28;20125;-65
2022/01/28 08:47:24;;;;;;;7.30;1.13;;;21.10;35.40;;;;;;5082164;28;20071;-67
2022/01/28 08:49:50;;;;;;;7.75;1.15;;;21.00;35.80;;;;;;5081237;28;20032;-70
2022/01/28 08:52:16;;;;;;;4.90;0.93;;;20.90;36.10;;;;;;5084099;28;20480;-64
2022/01/28 08:54:42;;;;;;;7.10;0.98;;;20.80;36.30;;;;;;5084632;28;20051;-65
2022/01/28 08:57:08;;;;;;;6.15;0.77;;;20.80;36.60;;;;;;5084764;28;20800;-66
2022/01/28 08:59:34;;;;;;;4.43;0.75;;;20.80;36.90;;;;;;5086854;28;20127;-67
2022/01/28 09:02:00;;;;;;;10.40;1.08;;;20.70;37.00;;;;;;5082959;28;20660;-69
2022/01/28 09:04:26;;;;;;;6.95;0.95;;;20.70;37.30;;;;;;5082396;28;20043;-67
2022/01/28 09:06:52;;;;;;;7.80;1.13;;;20.60;37.30;;;;;;5100926;28;20052;-74
2022/01/28 09:09:20;;;;;;;6.28;1.05;;;20.60;37.50;;;;;;5087370;28;20500;-69
2022/01/28 09:11:53;;;;;;;5.82;0.68;;;20.60;37.70;;;;;;5087915;28;20557;-71
2022/01/28 09:14:22;;;;;;;4.93;1.17;;;20.50;37.80;;;;;;5087530;28;20039;-70
2022/01/28 09:16:48;;;;;;;7.10;0.90;;;20.50;37.90;;;;;;5082942;28;20048;-66
2022/01/28 09:19:14;;;;;;;5.20;0.63;;;20.50;38.00;;;;;;5088349;28;20101;-66
2022/01/28 09:21:40;;;;;;;4.00;0.82;;;20.50;38.10;;;;;;5088448;28;20040;-68
2022/01/28 09:24:06;;;;;;;8.15;0.77;;;20.60;38.30;;;;;;5084438;28;20415;-66
2022/01/28 09:26:32;;;;;;;4.57;0.80;;;20.60;38.20;;;;;;5091057;28;20063;-65
2022/01/28 09:28:58;;;;;;;6.88;0.82;;;20.70;38.10;;;;;;5085183;28;20032;-65
2022/01/28 09:31:23;;;;;;;5.60;1.00;;;20.80;38.00;;;;;;5086386;28;20032;-70
2022/01/28 09:33:49;;;;;;;4.65;0.77;;;20.90;38.00;;;;;;5094858;28;20578;-67
2022/01/28 09:36:15;;;;;;;8.75;1.08;;;20.90;38.00;;;;;;5079858;28;20118;-69
2022/01/28 09:38:40;;;;;;;6.25;0.93;;;21.00;37.70;;;;;;5074116;28;20502;-65
2022/01/28 09:41:08;;;;;;;4.38;1.55;;;21.10;37.60;;;;;;5074683;28;20513;-70
2022/01/28 09:43:35;;;;;;;5.13;0.68;;;21.20;37.60;;;;;;5080542;28;20076;-71
2022/01/28 09:46:02;;;;;;;5.45;0.85;;;21.20;37.50;;;;;;5075077;28;20048;-80
2022/01/28 09:48:28;;;;;;;6.82;1.20;;;21.20;36.90;;;;;;5076155;28;20087;-76
2022/01/28 09:51:02;;;;;;;11.68;1.73;;;21.20;35.60;;;;;;5089049;28;20044;-67
2022/01/28 09:53:28;;;;;;;9.23;1.75;;;21.10;35.30;;;;;;5078249;28;20071;-79
2022/01/28 09:55:56;;;;;;;5.60;1.13;;;21.00;35.30;;;;;;5076322;28;20052;-77
2022/01/28 09:58:23;;;;;;;12.98;1.80;;;20.90;34.80;;;;;;5076373;28;20044;-71
2022/01/28 10:00:49;;;;;;;7.40;1.25;;;20.80;34.30;;;;;;5076467;28;20044;-70
2022/01/28 10:03:16;;;;;;;8.73;1.20;;;20.70;34.80;;;;;;5073718;28;20051;-72
2022/01/28 10:08:26;;;;;;;6.88;0.98;;;20.70;35.60;;;;;;5099226;27;20977;-65
2022/01/28 10:11:12;;;;;;;7.82;1.35;;;20.90;35.60;;;;;;5079215;28;20043;-72
2022/01/28 10:13:47;;;;;;;6.00;1.60;;;21.10;35.60;;;;;;5075062;28;20036;-70
2022/01/28 10:19:03;;;;;;;6.60;1.05;;;21.50;35.40;;;;;;5058426;27;21328;-66
2022/01/28 10:29:39;;;;;;;7.75;1.00;;;21.80;35.00;;;;;;5076615;27;20472;-65
2022/01/28 10:32:10;;;;;;;4.70;1.13;;;21.80;35.30;;;;;;5109446;27;20525;-65
2022/01/28 10:34:40;;;;;;;7.82;1.27;;;21.80;35.50;;;;;;5105264;27;20048;-65
2022/01/28 10:45:16;;;;;;;5.57;1.08;;;21.60;35.90;;;;;;5051898;27;20555;-64
2022/01/28 10:50:34;;;;;;;6.22;1.00;;;21.50;36.20;;;;;;5117289;27;1160472;-65
2022/01/28 10:55:53;;;;;;;9.90;1.38;;;21.10;37.30;;;;;;5107872;27;20456;-63
2022/01/28 10:58:21;;;;;;;8.55;1.17;;;21.00;37.40;;;;;;5097664;28;20620;-65
2022/01/28 11:00:57;;;;;;;8.60;1.52;;;20.90;37.70;;;;;;5099190;28;20113;-64
2022/01/28 11:03:27;;;;;;;7.50;0.95;;;20.90;38.00;;;;;;5098903;28;20043;-65
2022/01/28 11:06:02;;;;;;;7.10;1.85;;;20.80;37.70;;;;;;5099815;28;20074;-67
2022/01/28 11:08:30;;;;;;;5.97;1.45;;;20.70;36.50;;;;;;5102413;28;20036;-65
2022/01/28 11:10:56;;;;;;;6.72;1.67;;;20.70;37.10;;;;;;5102280;28;20063;-66
2022/01/28 11:13:23;;;;;;;10.63;1.98;;;20.70;37.50;;;;;;5099033;28;20734;-65
2022/01/28 11:15:49;;;;;;;7.80;1.88;;;20.70;36.50;;;;;;5098919;28;20039;-66
2022/01/28 11:18:16;;;;;;;9.85;1.77;;;20.70;36.20;;;;;;5100357;28;20061;-66
2022/01/28 11:20:47;;;;;;;13.27;2.05;;;20.80;36.30;;;;;;5098300;28;20470;-70
2022/01/28 11:39:50;;;;;;;15.82;3.00;;;21.40;32.70;;;;;;5065287;28;20429;-66
2022/01/28 11:42:28;;;;;;;9.25;2.75;;;21.00;32.20;;;;;;5066848;28;20099;-68
2022/01/28 11:44:55;;;;;;;11.38;2.05;;;20.90;31.60;;;;;;5071908;28;20033;-66
2022/01/28 11:50:14;;;;;;;8.70;2.10;;;20.80;32.30;;;;;;5109938;27;20371;-66
2022/01/28 11:55:31;;;;;;;6.38;2.28;;;21.10;32.60;;;;;;5070316;27;20417;-66
2022/01/28 11:58:12;;;;;;;7.80;1.67;;;21.30;32.60;;;;;;5072785;28;20423;-66
2022/01/28 12:03:24;;;;;;;7.63;2.47;;;21.50;32.50;;;;;;5140018;27;1166550;-67
2022/01/28 12:05:56;;;;;;;5.93;1.48;;;21.70;32.70;;;;;;5180638;27;20438;-70
2022/01/28 12:08:26;;;;;;;9.20;1.50;;;21.70;33.40;;;;;;5160347;27;20052;-66
2022/01/28 12:10:53;;;;;;;7.97;1.95;;;21.60;32.40;;;;;;5162239;27;20548;-67
2022/01/28 12:13:32;;;;;;;8.65;1.70;;;21.60;32.60;;;;;;5160346;27;20044;-73
2022/01/28 12:18:58;;;;;;;8.77;1.30;;;21.50;32.70;;;;;;5112919;27;20971;-63
2022/01/28 12:21:31;;;;;;;5.80;1.70;;;21.50;33.30;;;;;;5111964;28;20075;-78
2022/01/28 12:29:45;;;;;;;8.27;1.70;;;21.40;33.20;;;;;;5077271;27;20381;-70
2022/01/28 12:32:12;;;;;;;5.05;1.30;;;21.30;33.60;;;;;;5072153;28;20040;-71
2022/01/28 12:34:46;;;;;;;10.25;2.10;;;21.30;33.70;;;;;;5059583;28;20052;-66
2022/01/28 12:37:13;;;;;;;5.72;1.75;;;21.20;33.70;;;;;;5076428;28;20044;-66
2022/01/28 12:39:50;;;;;;;7.78;1.13;;;21.20;33.90;;;;;;5058554;28;20036;-66
2022/01/28 12:42:23;;;;;;;4.07;0.77;;;21.20;34.00;;;;;;5057014;28;20094;-66
2022/01/28 12:44:52;;;;;;;4.88;1.25;;;21.10;34.10;;;;;;5056486;28;20472;-66
2022/01/28 12:47:20;;;;;;;8.40;1.35;;;21.00;34.10;;;;;;5061095;28;20067;-71
2022/01/28 12:49:54;;;;;;;6.97;1.60;;;21.00;34.30;;;;;;5053683;28;20041;-72
2022/01/28 12:52:22;;;;;;;6.47;1.02;;;21.00;34.40;;;;;;5070692;28;20045;-66
2022/01/28 12:54:48;;;;;;;6.32;1.00;;;21.00;34.50;;;;;;5074998;28;20044;-72
2022/01/28 12:57:19;;;;;;;8.35;1.50;;;20.90;34.50;;;;;;5058338;28;20097;-65
2022/01/28 12:59:47;;;;;;;7.28;1.70;;;20.90;34.60;;;;;;5060945;28;20119;-74
2022/01/28 13:02:14;;;;;;;4.95;1.42;;;20.90;34.70;;;;;;5057471;28;20380;-67
2022/01/28 13:10:31;;;;;;;6.50;1.50;;;21.00;34.90;;;;;;5100046;28;20044;-65
2022/01/28 13:13:13;;;;;;;4.65;1.45;;;21.00;34.90;;;;;;5099837;28;20071;-66
2022/01/28 13:15:39;;;;;;;3.67;0.75;;;20.90;35.00;;;;;;5116634;27;20078;-66
2022/01/28 13:18:06;;;;;;;4.50;1.33;;;20.90;35.10;;;;;;5101800;28;20094;-71
2022/01/28 13:20:36;;;;;;;5.97;1.00;;;20.90;35.20;;;;;;5101506;28;20052;-65
2022/01/28 13:23:03;;;;;;;5.85;1.35;;;20.90;35.20;;;;;;5101571;28;20047;-66
2022/01/28 13:25:28;;;;;;;7.45;1.27;;;20.90;35.20;;;;;;5113230;28;20040;-66
2022/01/28 13:27:59;;;;;;;4.22;0.95;;;21.00;35.20;;;;;;5098152;28;20032;-73
2022/01/28 13:30:26;;;;;;;5.95;1.05;;;20.90;35.20;;;;;;5095353;28;20735;-66
2022/01/28 13:33:00;;;;;;;5.65;1.35;;;20.90;35.20;;;;;;5110422;28;20043;-72
2022/01/28 13:35:25;;;;;;;4.05;1.10;;;20.90;35.20;;;;;;5097433;28;20043;-66
2022/01/28 13:37:56;;;;;;;5.22;1.05;;;21.00;35.30;;;;;;5112618;27;20039;-73
2022/01/28 13:43:20;;;;;;;5.33;1.03;;;21.00;35.30;;;;;;5023952;27;4033643;-69
2022/01/28 13:51:16;;;;;;;6.30;1.38;;;21.00;35.40;;;;;;5090685;27;20128;-64
2022/01/28 13:56:44;;;;;;;5.57;1.52;;;21.00;35.30;;;;;;5092497;27;20413;-66
2022/01/28 13:59:12;;;;;;;6.32;1.00;;;21.00;36.30;;;;;;5078650;28;20654;-71
2022/01/28 14:01:42;;;;;;;4.65;1.42;;;21.00;35.50;;;;;;5061966;28;20976;-67
2022/01/28 14:04:18;;;;;;;6.43;1.17;;;21.00;35.60;;;;;;5082047;28;20058;-65
2022/01/28 14:06:43;;;;;;;6.28;1.20;;;20.90;35.60;;;;;;5066320;28;20040;-65
2022/01/28 14:09:14;;;;;;;3.63;0.90;;;20.90;35.60;;;;;;5088171;28;20086;-71
2022/01/28 14:14:26;;;;;;;5.07;1.08;;;20.90;35.70;;;;;;5058398;28;20402;-64
2022/01/28 14:16:56;;;;;;;3.77;0.80;;;20.90;35.70;;;;;;5047621;28;20037;-71
2022/01/28 14:19:24;;;;;;;3.70;0.98;;;20.90;35.70;;;;;;5052250;28;20040;-65
2022/01/28 14:21:50;;;;;;;5.00;1.00;;;20.90;35.80;;;;;;5067652;28;20749;-65
2022/01/28 14:24:19;;;;;;;5.15;1.20;;;20.90;35.80;;;;;;5056580;28;20060;-65
2022/01/28 14:26:56;;;;;;;4.93;1.02;;;20.90;35.80;;;;;;5058596;28;20055;-66
2022/01/28 14:29:25;;;;;;;4.20;0.73;;;20.90;35.90;;;;;;5065423;28;20037;-66
2022/01/28 14:31:55;;;;;;;5.10;0.95;;;20.90;35.90;;;;;;5061501;28;20109;-65
2022/01/28 14:34:22;;;;;;;4.43;1.80;;;20.90;36.00;;;;;;5060654;28;20045;-72
2022/01/28 14:36:49;;;;;;;6.43;1.30;;;20.80;35.90;;;;;;5067511;28;20570;-65
2022/01/28 14:39:15;;;;;;;3.75;0.82;;;20.80;36.00;;;;;;5070676;28;20549;-71
2022/01/28 14:41:42;;;;;;;3.53;0.70;;;20.80;36.00;;;;;;5062616;28;20039;-71
2022/01/28 14:44:08;;;;;;;3.95;1.00;;;20.70;36.00;;;;;;5062949;28;20044;-65
2022/01/28 14:46:34;;;;;;;4.47;0.90;;;20.70;36.10;;;;;;5063240;28;20634;-70
2022/01/28 14:49:04;;;;;;;3.45;0.80;;;20.70;36.10;;;;;;5061258;28;20526;-71
2022/01/28 14:51:30;;;;;;;4.70;0.68;;;20.70;36.10;;;;;;5061637;28;20044;-68
2022/01/28 14:53:59;;;;;;;3.83;0.73;;;20.70;36.20;;;;;;5061728;28;20045;-65
2022/01/28 14:56:24;;;;;;;4.10;0.95;;;20.70;36.20;;;;;;5070710;28;20540;-65
2022/01/28 14:58:50;;;;;;;4.88;0.90;;;20.70;36.20;;;;;;5063727;28;20040;-67
2022/01/28 15:01:18;;;;;;;3.55;1.27;;;20.70;36.30;;;;;;5078705;28;20625;-66
2022/01/28 15:03:47;;;;;;;3.35;0.82;;;20.60;36.30;;;;;;5063253;28;20400;-65
2022/01/28 15:06:15;;;;;;;6.32;0.80;;;20.60;36.30;;;;;;5059656;28;20051;-66
2022/01/28 15:08:43;;;;;;;3.70;1.00;;;20.70;36.30;;;;;;5059816;28;20037;-70
2022/01/28 15:11:13;;;;;;;4.45;0.90;;;20.60;36.10;;;;;;5060922;28;20041;-70
2022/01/28 15:13:39;;;;;;;5.05;0.60;;;20.60;36.10;;;;;;5059575;28;20131;-69
2022/01/28 15:16:06;;;;;;;8.63;0.63;;;20.50;36.20;;;;;;5060970;28;20037;-68
2022/01/28 15:18:34;;;;;;;3.75;0.75;;;20.50;36.40;;;;;;5061739;28;20041;-69
2022/01/28 15:21:01;;;;;;;3.25;0.40;;;20.40;36.50;;;;;;5062461;28;20036;-68
2022/01/28 15:23:26;;;;;;;4.82;0.50;;;20.40;36.70;;;;;;5060367;28;20044;-69
2022/01/28 15:25:52;;;;;;;3.47;0.50;;;20.40;36.70;;;;;;5049645;28;20052;-69
2022/01/28 15:28:19;;;;;;;3.35;0.40;;;20.40;36.70;;;;;;5049160;28;20074;-69
2022/01/28 15:36:22;;;;;;;5.35;0.45;;;20.30;37.00;;;;;;5050271;28;20041;-68
2022/01/28 15:38:48;;;;;;;3.92;0.60;;;20.30;37.00;;;;;;5049224;28;20444;-68
2022/01/28 15:41:14;;;;;;;5.60;0.70;;;20.30;37.00;;;;;;5049022;28;20041;-70
2022/01/28 15:43:40;;;;;;;2.97;0.68;;;20.20;37.10;;;;;;5048894;28;20041;-70
2022/01/28 15:46:08;;;;;;;4.63;0.40;;;20.20;37.30;;;;;;5050427;28;20033;-67
2022/01/28 15:48:33;;;;;;;2.13;0.30;;;20.10;37.30;;;;;;5049376;28;20424;-67
2022/01/28 15:50:59;;;;;;;2.35;0.38;;;20.00;37.40;;;;;;5050282;28;20044;-67
2022/01/28 15:53:26;;;;;;;2.15;0.30;;;20.00;37.60;;;;;;5049593;28;20033;-68
2022/01/28 15:55:52;;;;;;;1.70;0.30;;;19.90;37.70;;;;;;5062956;28;20083;-70
2022/01/28 15:58:18;;;;;;;5.15;1.10;;;19.80;38.00;;;;;;5049519;28;20060;-70